sensor_id;sensor_type;location;lat;lon;timestamp;pressure;altitude;pressure_sealevel;temperature;humidity
77469;BME280;66567;50.272;12.818;2023-02-11T00:00:06;97629;;;-1.3;71.3
77469;BME280;66567;50.272;12.818;2023-02-11T00:02:05;97626;;;-1.4;71.3
77469;BME280;66567;50.272;12.818;2023-02-11T00:04:05;97626;;;-1.4;71.2
77469;BME280;66567;50.272;12.818;2023-02-11T00:06:09;97628;;;-1.4;71.2
77469;BME280;66567;50.272;12.818;2023-02-11T00:08:05;97629;;;-1.4;71.2
77469;BME280;66567;50.272;12.818;2023-02-11T00:10:07;97625;;;-1.4;71.2
77469;BME280;66567;50.272;12.818;2023-02-11T00:12:05;97624;;;-1.4;71.3
77469;BME280;66567;50.272;12.818;2023-02-11T00:14:07;97628;;;-1.5;71.3
77469;BME280;66567;50.272;12.818;2023-02-11T00:16:07;97634;;;-1.5;71.3
77469;BME280;66567;50.272;12.818;2023-02-11T00:18:05;97636;;;-1.5;71.4
77469;BME280;66567;50.272;12.818;2023-02-11T00:20:05;97632;;;-1.5;71.3
77469;BME280;66567;50.272;12.818;2023-02-11T00:22:05;97625;;;-1.5;71.3
77469;BME280;66567;50.272;12.818;2023-02-11T00:24:05;97620;;;-1.5;71.3
77469;BME280;66567;50.272;12.818;2023-02-11T00:28:05;97618;;;-1.6;71.4
77469;BME280;66567;50.272;12.818;2023-02-11T00:30:05;97616;;;-1.6;71.4
77469;BME280;66567;50.272;12.818;2023-02-11T00:32:05;97615;;;-1.6;71.5
77469;BME280;66567;50.272;12.818;2023-02-11T00:34:05;97610;;;-1.6;71.7
77469;BME280;66567;50.272;12.818;2023-02-11T00:36:08;97606;;;-1.7;71.7
77469;BME280;66567;50.272;12.818;2023-02-11T00:38:05;97602;;;-1.7;71.7
77469;BME280;66567;50.272;12.818;2023-02-11T00:40:05;97600;;;-1.7;71.7
77469;BME280;66567;50.272;12.818;2023-02-11T00:42:05;97600;;;-1.7;71.6
77469;BME280;66567;50.272;12.818;2023-02-11T00:44:05;97603;;;-1.7;71.8
77469;BME280;66567;50.272;12.818;2023-02-11T00:46:05;97598;;;-1.7;71.8
77469;BME280;66567;50.272;12.818;2023-02-11T00:48:05;97596;;;-1.7;71.8
77469;BME280;66567;50.272;12.818;2023-02-11T00:50:05;97594;;;-1.7;71.9
77469;BME280;66567;50.272;12.818;2023-02-11T00:52:05;97591;;;-1.7;71.8
77469;BME280;66567;50.272;12.818;2023-02-11T00:54:05;97599;;;-1.7;71.9
77469;BME280;66567;50.272;12.818;2023-02-11T00:56:05;97605;;;-1.7;72.0
77469;BME280;66567;50.272;12.818;2023-02-11T00:58:05;97613;;;-1.8;71.9
77469;BME280;66567;50.272;12.818;2023-02-11T01:00:05;97610;;;-1.8;72.0
77469;BME280;66567;50.272;12.818;2023-02-11T01:02:05;97598;;;-1.8;72.0
77469;BME280;66567;50.272;12.818;2023-02-11T01:04:05;97599;;;-1.8;72.1
77469;BME280;66567;50.272;12.818;2023-02-11T01:06:06;97600;;;-1.8;72.1
77469;BME280;66567;50.272;12.818;2023-02-11T01:08:06;97595;;;-1.8;72.1
77469;BME280;66567;50.272;12.818;2023-02-11T01:10:05;97592;;;-1.8;72.1
77469;BME280;66567;50.272;12.818;2023-02-11T01:12:05;97584;;;-1.8;72.1
77469;BME280;66567;50.272;12.818;2023-02-11T01:14:05;97581;;;-1.8;72.1
77469;BME280;66567;50.272;12.818;2023-02-11T01:16:06;97581;;;-1.8;72.1
77469;BME280;66567;50.272;12.818;2023-02-11T01:18:05;97581;;;-1.8;72.1
77469;BME280;66567;50.272;12.818;2023-02-11T01:20:06;97583;;;-1.8;72.2
77469;BME280;66567;50.272;12.818;2023-02-11T01:22:05;97580;;;-1.8;72.2
77469;BME280;66567;50.272;12.818;2023-02-11T01:24:05;97577;;;-1.8;72.2
77469;BME280;66567;50.272;12.818;2023-02-11T01:26:05;97577;;;-1.8;72.2
77469;BME280;66567;50.272;12.818;2023-02-11T01:28:05;97573;;;-1.8;72.2
77469;BME280;66567;50.272;12.818;2023-02-11T01:30:06;97568;;;-1.8;72.2
77469;BME280;66567;50.272;12.818;2023-02-11T01:32:05;97566;;;-1.7;72.2
77469;BME280;66567;50.272;12.818;2023-02-11T01:34:05;97562;;;-1.7;72.2
77469;BME280;66567;50.272;12.818;2023-02-11T01:36:05;97556;;;-1.7;72.2
77469;BME280;66567;50.272;12.818;2023-02-11T01:38:06;97549;;;-1.7;72.2
77469;BME280;66567;50.272;12.818;2023-02-11T01:40:06;97543;;;-1.7;72.1
77469;BME280;66567;50.272;12.818;2023-02-11T01:42:05;97543;;;-1.7;72.1
77469;BME280;66567;50.272;12.818;2023-02-11T01:44:24;97544;;;-1.7;72.1
77469;BME280;66567;50.272;12.818;2023-02-11T01:48:05;97534;;;-1.7;72.2
77469;BME280;66567;50.272;12.818;2023-02-11T01:50:05;97531;;;-1.7;72.2
77469;BME280;66567;50.272;12.818;2023-02-11T01:54:16;97522;;;-1.6;72.1
77469;BME280;66567;50.272;12.818;2023-02-11T01:56:15;97532;;;-1.6;72.1
77469;BME280;66567;50.272;12.818;2023-02-11T01:58:05;97535;;;-1.6;72.0
77469;BME280;66567;50.272;12.818;2023-02-11T02:00:17;97535;;;-1.6;72.0
77469;BME280;66567;50.272;12.818;2023-02-11T02:02:08;97534;;;-1.6;72.0
77469;BME280;66567;50.272;12.818;2023-02-11T02:04:05;97529;;;-1.6;72.0
77469;BME280;66567;50.272;12.818;2023-02-11T02:06:09;97532;;;-1.5;72.1
77469;BME280;66567;50.272;12.818;2023-02-11T02:10:11;97529;;;-1.5;72.1
77469;BME280;66567;50.272;12.818;2023-02-11T02:12:05;97524;;;-1.5;72.2
77469;BME280;66567;50.272;12.818;2023-02-11T02:14:05;97525;;;-1.5;72.2
77469;BME280;66567;50.272;12.818;2023-02-11T02:16:09;97519;;;-1.5;72.2
77469;BME280;66567;50.272;12.818;2023-02-11T02:20:22;97514;;;-1.4;72.2
77469;BME280;66567;50.272;12.818;2023-02-11T02:30:19;97504;;;-1.4;71.9
77469;BME280;66567;50.272;12.818;2023-02-11T02:34:11;97490;;;-1.4;71.8
77469;BME280;66567;50.272;12.818;2023-02-11T02:40:10;97480;;;-1.4;71.8
77469;BME280;66567;50.272;12.818;2023-02-11T02:42:05;97479;;;-1.4;71.8
77469;BME280;66567;50.272;12.818;2023-02-11T02:44:06;97478;;;-1.4;71.8
77469;BME280;66567;50.272;12.818;2023-02-11T02:48:05;97480;;;-1.4;71.7
77469;BME280;66567;50.272;12.818;2023-02-11T02:50:05;97483;;;-1.4;71.6
77469;BME280;66567;50.272;12.818;2023-02-11T02:56:10;97487;;;-1.4;71.4
77469;BME280;66567;50.272;12.818;2023-02-11T03:02:24;97492;;;-1.3;71.7
77469;BME280;66567;50.272;12.818;2023-02-11T03:08:15;97485;;;-1.2;71.8
77469;BME280;66567;50.272;12.818;2023-02-11T03:12:05;97489;;;-1.2;71.7
77469;BME280;66567;50.272;12.818;2023-02-11T03:14:07;97488;;;-1.1;71.6
77469;BME280;66567;50.272;12.818;2023-02-11T03:16:11;97484;;;-1.1;71.5
77469;BME280;66567;50.272;12.818;2023-02-11T03:18:05;97477;;;-1.1;71.4
77469;BME280;66567;50.272;12.818;2023-02-11T03:20:05;97484;;;-1.0;71.3
77469;BME280;66567;50.272;12.818;2023-02-11T03:22:09;97480;;;-1.0;71.2
77469;BME280;66567;50.272;12.818;2023-02-11T03:24:07;97475;;;-1.0;71.2
77469;BME280;66567;50.272;12.818;2023-02-11T03:26:13;97467;;;-1.0;71.2
77469;BME280;66567;50.272;12.818;2023-02-11T03:28:17;97463;;;-1.0;71.2
77469;BME280;66567;50.272;12.818;2023-02-11T03:30:16;97460;;;-0.9;71.2
77469;BME280;66567;50.272;12.818;2023-02-11T03:34:10;97460;;;-0.9;71.1
77469;BME280;66567;50.272;12.818;2023-02-11T03:36:08;97462;;;-0.9;71.0
77469;BME280;66567;50.272;12.818;2023-02-11T03:38:10;97470;;;-0.9;70.9
77469;BME280;66567;50.272;12.818;2023-02-11T03:40:06;97466;;;-0.9;70.8
77469;BME280;66567;50.272;12.818;2023-02-11T03:42:06;97471;;;-0.9;70.7
77469;BME280;66567;50.272;12.818;2023-02-11T03:44:05;97471;;;-0.9;70.7
77469;BME280;66567;50.272;12.818;2023-02-11T03:46:05;97461;;;-0.9;70.7
77469;BME280;66567;50.272;12.818;2023-02-11T03:48:13;97453;;;-0.9;70.6
77469;BME280;66567;50.272;12.818;2023-02-11T03:50:06;97449;;;-0.9;70.6
77469;BME280;66567;50.272;12.818;2023-02-11T03:52:06;97445;;;-0.9;70.6
77469;BME280;66567;50.272;12.818;2023-02-11T03:54:08;97439;;;-0.9;70.5
77469;BME280;66567;50.272;12.818;2023-02-11T03:56:07;97429;;;-0.9;70.4
77469;BME280;66567;50.272;12.818;2023-02-11T03:58:05;97427;;;-0.9;70.4
77469;BME280;66567;50.272;12.818;2023-02-11T04:00:05;97424;;;-0.9;70.4
77469;BME280;66567;50.272;12.818;2023-02-11T04:02:05;97420;;;-0.9;70.4
77469;BME280;66567;50.272;12.818;2023-02-11T04:04:05;97418;;;-0.9;70.3
77469;BME280;66567;50.272;12.818;2023-02-11T04:06:05;97413;;;-0.9;70.3
77469;BME280;66567;50.272;12.818;2023-02-11T04:08:05;97409;;;-0.9;70.2
77469;BME280;66567;50.272;12.818;2023-02-11T04:10:05;97421;;;-0.9;70.2
77469;BME280;66567;50.272;12.818;2023-02-11T04:12:05;97417;;;-0.9;70.3
77469;BME280;66567;50.272;12.818;2023-02-11T04:14:05;97408;;;-0.9;70.3
77469;BME280;66567;50.272;12.818;2023-02-11T04:16:05;97408;;;-1.0;70.3
77469;BME280;66567;50.272;12.818;2023-02-11T04:18:05;97415;;;-1.0;70.3
77469;BME280;66567;50.272;12.818;2023-02-11T04:20:05;97415;;;-1.0;70.3
77469;BME280;66567;50.272;12.818;2023-02-11T04:22:05;97419;;;-1.0;70.2
77469;BME280;66567;50.272;12.818;2023-02-11T04:24:05;97419;;;-1.0;70.2
77469;BME280;66567;50.272;12.818;2023-02-11T04:26:05;97418;;;-1.0;70.1
77469;BME280;66567;50.272;12.818;2023-02-11T04:28:05;97410;;;-1.1;70.1
77469;BME280;66567;50.272;12.818;2023-02-11T04:30:06;97409;;;-1.1;70.1
77469;BME280;66567;50.272;12.818;2023-02-11T04:32:05;97405;;;-1.1;70.0
77469;BME280;66567;50.272;12.818;2023-02-11T04:34:05;97398;;;-1.2;70.1
77469;BME280;66567;50.272;12.818;2023-02-11T04:36:05;97395;;;-1.2;70.1
77469;BME280;66567;50.272;12.818;2023-02-11T04:38:05;97398;;;-1.2;70.2
77469;BME280;66567;50.272;12.818;2023-02-11T04:40:05;97400;;;-1.2;70.2
77469;BME280;66567;50.272;12.818;2023-02-11T04:42:05;97400;;;-1.3;70.3
77469;BME280;66567;50.272;12.818;2023-02-11T04:44:05;97403;;;-1.3;70.4
77469;BME280;66567;50.272;12.818;2023-02-11T04:46:05;97401;;;-1.3;70.5
77469;BME280;66567;50.272;12.818;2023-02-11T04:48:05;97400;;;-1.3;70.6
77469;BME280;66567;50.272;12.818;2023-02-11T04:50:05;97396;;;-1.3;70.6
77469;BME280;66567;50.272;12.818;2023-02-11T04:52:05;97393;;;-1.3;70.7
77469;BME280;66567;50.272;12.818;2023-02-11T04:54:05;97389;;;-1.3;70.7
77469;BME280;66567;50.272;12.818;2023-02-11T04:56:05;97397;;;-1.3;70.7
77469;BME280;66567;50.272;12.818;2023-02-11T04:58:05;97390;;;-1.3;70.7
77469;BME280;66567;50.272;12.818;2023-02-11T05:00:05;97388;;;-1.3;70.7
77469;BME280;66567;50.272;12.818;2023-02-11T05:02:05;97384;;;-1.3;70.8
77469;BME280;66567;50.272;12.818;2023-02-11T05:04:05;97383;;;-1.3;70.8
77469;BME280;66567;50.272;12.818;2023-02-11T05:06:05;97385;;;-1.2;70.9
77469;BME280;66567;50.272;12.818;2023-02-11T05:08:06;97392;;;-1.2;70.9
77469;BME280;66567;50.272;12.818;2023-02-11T05:10:05;97393;;;-1.2;70.9
77469;BME280;66567;50.272;12.818;2023-02-11T05:12:05;97393;;;-1.2;70.9
77469;BME280;66567;50.272;12.818;2023-02-11T05:14:05;97387;;;-1.1;70.9
77469;BME280;66567;50.272;12.818;2023-02-11T05:16:05;97382;;;-1.1;70.9
77469;BME280;66567;50.272;12.818;2023-02-11T05:18:05;97395;;;-1.1;70.9
77469;BME280;66567;50.272;12.818;2023-02-11T05:20:05;97399;;;-1.1;70.8
77469;BME280;66567;50.272;12.818;2023-02-11T05:22:05;97405;;;-1.0;70.8
77469;BME280;66567;50.272;12.818;2023-02-11T05:24:05;97407;;;-1.0;70.8
77469;BME280;66567;50.272;12.818;2023-02-11T05:26:05;97400;;;-1.0;70.8
77469;BME280;66567;50.272;12.818;2023-02-11T05:28:05;97401;;;-1.0;70.8
77469;BME280;66567;50.272;12.818;2023-02-11T05:30:05;97400;;;-1.0;70.8
77469;BME280;66567;50.272;12.818;2023-02-11T05:32:06;97397;;;-0.9;70.9
77469;BME280;66567;50.272;12.818;2023-02-11T05:34:05;97395;;;-0.9;71.0
77469;BME280;66567;50.272;12.818;2023-02-11T05:36:07;97391;;;-0.9;71.1
77469;BME280;66567;50.272;12.818;2023-02-11T05:38:05;97394;;;-0.9;71.2
77469;BME280;66567;50.272;12.818;2023-02-11T05:40:05;97398;;;-0.9;71.2
77469;BME280;66567;50.272;12.818;2023-02-11T05:42:05;97397;;;-0.8;71.2
77469;BME280;66567;50.272;12.818;2023-02-11T05:44:05;97405;;;-0.8;71.2
77469;BME280;66567;50.272;12.818;2023-02-11T05:46:05;97421;;;-0.8;71.1
77469;BME280;66567;50.272;12.818;2023-02-11T05:48:05;97424;;;-0.7;71.1
77469;BME280;66567;50.272;12.818;2023-02-11T05:50:05;97421;;;-0.7;71.0
77469;BME280;66567;50.272;12.818;2023-02-11T05:52:05;97424;;;-0.7;70.9
77469;BME280;66567;50.272;12.818;2023-02-11T05:54:05;97426;;;-0.7;70.9
77469;BME280;66567;50.272;12.818;2023-02-11T05:56:05;97426;;;-0.6;70.9
77469;BME280;66567;50.272;12.818;2023-02-11T05:58:05;97427;;;-0.6;70.9
77469;BME280;66567;50.272;12.818;2023-02-11T06:00:05;97425;;;-0.6;71.0
77469;BME280;66567;50.272;12.818;2023-02-11T06:02:07;97426;;;-0.6;71.0
77469;BME280;66567;50.272;12.818;2023-02-11T06:04:05;97426;;;-0.6;71.1
77469;BME280;66567;50.272;12.818;2023-02-11T06:06:10;97422;;;-0.6;71.0
77469;BME280;66567;50.272;12.818;2023-02-11T06:08:05;97419;;;-0.6;71.1
77469;BME280;66567;50.272;12.818;2023-02-11T06:10:05;97418;;;-0.6;71.2
77469;BME280;66567;50.272;12.818;2023-02-11T06:12:05;97411;;;-0.6;71.0
77469;BME280;66567;50.272;12.818;2023-02-11T06:14:05;97416;;;-0.6;71.0
77469;BME280;66567;50.272;12.818;2023-02-11T06:16:05;97415;;;-0.6;71.1
77469;BME280;66567;50.272;12.818;2023-02-11T06:18:06;97415;;;-0.6;71.2
77469;BME280;66567;50.272;12.818;2023-02-11T06:20:06;97412;;;-0.6;71.3
77469;BME280;66567;50.272;12.818;2023-02-11T06:22:05;97408;;;-0.6;71.3
77469;BME280;66567;50.272;12.818;2023-02-11T06:24:06;97411;;;-0.6;71.4
77469;BME280;66567;50.272;12.818;2023-02-11T06:26:07;97414;;;-0.6;71.4
77469;BME280;66567;50.272;12.818;2023-02-11T06:28:05;97413;;;-0.6;71.5
77469;BME280;66567;50.272;12.818;2023-02-11T06:30:06;97412;;;-0.6;71.5
77469;BME280;66567;50.272;12.818;2023-02-11T06:32:05;97409;;;-0.6;71.6
77469;BME280;66567;50.272;12.818;2023-02-11T06:34:07;97408;;;-0.6;71.6
77469;BME280;66567;50.272;12.818;2023-02-11T06:36:15;97410;;;-0.6;71.7
77469;BME280;66567;50.272;12.818;2023-02-11T06:38:05;97406;;;-0.7;71.7
77469;BME280;66567;50.272;12.818;2023-02-11T06:40:05;97411;;;-0.7;71.8
77469;BME280;66567;50.272;12.818;2023-02-11T06:42:05;97418;;;-0.7;71.8
77469;BME280;66567;50.272;12.818;2023-02-11T06:44:05;97429;;;-0.7;71.9
77469;BME280;66567;50.272;12.818;2023-02-11T06:46:05;97436;;;-0.7;71.8
77469;BME280;66567;50.272;12.818;2023-02-11T06:48:05;97440;;;-0.7;71.9
77469;BME280;66567;50.272;12.818;2023-02-11T06:50:07;97445;;;-0.7;71.9
77469;BME280;66567;50.272;12.818;2023-02-11T06:52:05;97446;;;-0.7;71.8
77469;BME280;66567;50.272;12.818;2023-02-11T06:54:05;97449;;;-0.7;71.9
77469;BME280;66567;50.272;12.818;2023-02-11T06:56:08;97453;;;-0.6;71.9
77469;BME280;66567;50.272;12.818;2023-02-11T06:58:05;97458;;;-0.6;71.9
77469;BME280;66567;50.272;12.818;2023-02-11T07:00:06;97460;;;-0.6;71.8
77469;BME280;66567;50.272;12.818;2023-02-11T07:02:05;97455;;;-0.6;71.9
77469;BME280;66567;50.272;12.818;2023-02-11T07:04:07;97450;;;-0.6;72.2
77469;BME280;66567;50.272;12.818;2023-02-11T07:06:06;97449;;;-0.6;72.4
77469;BME280;66567;50.272;12.818;2023-02-11T07:08:05;97452;;;-0.6;72.4
77469;BME280;66567;50.272;12.818;2023-02-11T07:10:05;97454;;;-0.6;72.7
77469;BME280;66567;50.272;12.818;2023-02-11T07:12:05;97450;;;-0.6;73.0
77469;BME280;66567;50.272;12.818;2023-02-11T07:14:07;97448;;;-0.6;72.9
77469;BME280;66567;50.272;12.818;2023-02-11T07:16:06;97445;;;-0.6;73.0
77469;BME280;66567;50.272;12.818;2023-02-11T07:18:05;97442;;;-0.6;73.1
77469;BME280;66567;50.272;12.818;2023-02-11T07:20:05;97441;;;-0.6;73.5
77469;BME280;66567;50.272;12.818;2023-02-11T07:22:05;97437;;;-0.6;73.6
77469;BME280;66567;50.272;12.818;2023-02-11T07:24:06;97441;;;-0.6;73.7
77469;BME280;66567;50.272;12.818;2023-02-11T07:26:07;97436;;;-0.5;73.8
77469;BME280;66567;50.272;12.818;2023-02-11T07:28:05;97431;;;-0.5;73.6
77469;BME280;66567;50.272;12.818;2023-02-11T07:30:05;97429;;;-0.5;73.5
77469;BME280;66567;50.272;12.818;2023-02-11T07:32:05;97431;;;-0.5;73.5
77469;BME280;66567;50.272;12.818;2023-02-11T07:34:05;97427;;;-0.5;73.5
77469;BME280;66567;50.272;12.818;2023-02-11T07:36:06;97429;;;-0.5;73.6
77469;BME280;66567;50.272;12.818;2023-02-11T07:38:05;97434;;;-0.5;73.7
77469;BME280;66567;50.272;12.818;2023-02-11T07:40:07;97433;;;-0.5;73.8
77469;BME280;66567;50.272;12.818;2023-02-11T07:42:05;97433;;;-0.5;74.0
77469;BME280;66567;50.272;12.818;2023-02-11T07:44:05;97437;;;-0.5;74.4
77469;BME280;66567;50.272;12.818;2023-02-11T07:46:08;97438;;;-0.5;74.7
77469;BME280;66567;50.272;12.818;2023-02-11T07:48:05;97439;;;-0.5;74.7
77469;BME280;66567;50.272;12.818;2023-02-11T07:50:05;97437;;;-0.4;74.7
77469;BME280;66567;50.272;12.818;2023-02-11T07:52:05;97437;;;-0.4;74.7
77469;BME280;66567;50.272;12.818;2023-02-11T07:54:05;97438;;;-0.4;74.7
77469;BME280;66567;50.272;12.818;2023-02-11T07:56:06;97439;;;-0.4;74.7
77469;BME280;66567;50.272;12.818;2023-02-11T07:58:05;97437;;;-0.4;74.7
77469;BME280;66567;50.272;12.818;2023-02-11T08:00:06;97436;;;-0.4;74.7
77469;BME280;66567;50.272;12.818;2023-02-11T08:02:05;97440;;;-0.4;74.6
77469;BME280;66567;50.272;12.818;2023-02-11T08:04:05;97446;;;-0.4;74.5
77469;BME280;66567;50.272;12.818;2023-02-11T08:06:06;97451;;;-0.4;74.6
77469;BME280;66567;50.272;12.818;2023-02-11T08:08:05;97453;;;-0.3;74.4
77469;BME280;66567;50.272;12.818;2023-02-11T08:10:05;97450;;;-0.3;74.4
77469;BME280;66567;50.272;12.818;2023-02-11T08:12:05;97445;;;-0.3;74.2
77469;BME280;66567;50.272;12.818;2023-02-11T08:14:05;97440;;;-0.2;74.1
77469;BME280;66567;50.272;12.818;2023-02-11T08:16:05;97442;;;-0.2;74.0
77469;BME280;66567;50.272;12.818;2023-02-11T08:18:05;97444;;;-0.2;73.9
77469;BME280;66567;50.272;12.818;2023-02-11T08:20:05;97445;;;-0.2;74.0
77469;BME280;66567;50.272;12.818;2023-02-11T08:22:05;97449;;;-0.1;73.9
77469;BME280;66567;50.272;12.818;2023-02-11T08:24:05;97451;;;-0.1;73.9
77469;BME280;66567;50.272;12.818;2023-02-11T08:26:09;97452;;;-0.1;73.8
77469;BME280;66567;50.272;12.818;2023-02-11T08:28:05;97445;;;-0.1;73.7
77469;BME280;66567;50.272;12.818;2023-02-11T08:30:05;97443;;;-0.1;73.7
77469;BME280;66567;50.272;12.818;2023-02-11T08:32:05;97444;;;-0.1;73.7
77469;BME280;66567;50.272;12.818;2023-02-11T08:34:05;97442;;;-0.0;73.8
77469;BME280;66567;50.272;12.818;2023-02-11T08:36:08;97444;;;-0.0;73.9
77469;BME280;66567;50.272;12.818;2023-02-11T08:38:05;97451;;;-0.0;74.0
77469;BME280;66567;50.272;12.818;2023-02-11T08:40:05;97454;;;-0.0;73.9
77469;BME280;66567;50.272;12.818;2023-02-11T08:42:05;97457;;;0.0;74.0
77469;BME280;66567;50.272;12.818;2023-02-11T08:44:05;97461;;;0.0;74.1
77469;BME280;66567;50.272;12.818;2023-02-11T08:46:05;97464;;;0.0;74.1
77469;BME280;66567;50.272;12.818;2023-02-11T08:48:05;97464;;;0.0;74.2
77469;BME280;66567;50.272;12.818;2023-02-11T08:50:05;97463;;;0.0;74.3
77469;BME280;66567;50.272;12.818;2023-02-11T08:52:05;97465;;;0.0;74.3
77469;BME280;66567;50.272;12.818;2023-02-11T08:54:08;97464;;;0.0;74.4
77469;BME280;66567;50.272;12.818;2023-02-11T08:56:05;97462;;;0.0;74.5
77469;BME280;66567;50.272;12.818;2023-02-11T08:58:05;97462;;;0.0;74.6
77469;BME280;66567;50.272;12.818;2023-02-11T09:00:05;97463;;;0.0;74.8
77469;BME280;66567;50.272;12.818;2023-02-11T09:02:08;97466;;;0.1;75.1
77469;BME280;66567;50.272;12.818;2023-02-11T09:04:05;97465;;;0.1;75.4
77469;BME280;66567;50.272;12.818;2023-02-11T09:06:06;97465;;;0.1;75.6
77469;BME280;66567;50.272;12.818;2023-02-11T09:08:05;97463;;;0.1;75.7
77469;BME280;66567;50.272;12.818;2023-02-11T09:10:05;97464;;;0.1;75.9
77469;BME280;66567;50.272;12.818;2023-02-11T09:12:05;97469;;;0.0;76.1
77469;BME280;66567;50.272;12.818;2023-02-11T09:14:05;97471;;;0.0;76.3
77469;BME280;66567;50.272;12.818;2023-02-11T09:16:05;97473;;;0.1;76.4
77469;BME280;66567;50.272;12.818;2023-02-11T09:18:05;97472;;;0.0;76.5
77469;BME280;66567;50.272;12.818;2023-02-11T09:20:05;97476;;;0.0;76.7
77469;BME280;66567;50.272;12.818;2023-02-11T09:22:05;97479;;;0.0;77.0
77469;BME280;66567;50.272;12.818;2023-02-11T09:24:05;97478;;;0.1;77.0
77469;BME280;66567;50.272;12.818;2023-02-11T09:26:07;97478;;;0.1;77.0
77469;BME280;66567;50.272;12.818;2023-02-11T09:28:05;97480;;;0.1;77.1
77469;BME280;66567;50.272;12.818;2023-02-11T09:30:05;97477;;;0.1;77.2
77469;BME280;66567;50.272;12.818;2023-02-11T09:32:05;97474;;;0.0;77.4
77469;BME280;66567;50.272;12.818;2023-02-11T09:34:05;97477;;;0.0;77.6
77469;BME280;66567;50.272;12.818;2023-02-11T09:36:05;97479;;;0.0;77.7
77469;BME280;66567;50.272;12.818;2023-02-11T09:38:06;97474;;;0.0;78.0
77469;BME280;66567;50.272;12.818;2023-02-11T09:40:05;97477;;;0.0;78.3
77469;BME280;66567;50.272;12.818;2023-02-11T09:44:06;97480;;;-0.0;78.9
77469;BME280;66567;50.272;12.818;2023-02-11T09:46:05;97478;;;0.0;79.0
77469;BME280;66567;50.272;12.818;2023-02-11T09:48:16;97478;;;0.0;78.9
77469;BME280;66567;50.272;12.818;2023-02-11T09:50:11;97478;;;0.0;79.1
77469;BME280;66567;50.272;12.818;2023-02-11T09:52:26;97477;;;0.0;79.0
77469;BME280;66567;50.272;12.818;2023-02-11T09:54:20;97476;;;0.0;79.2
77469;BME280;66567;50.272;12.818;2023-02-11T09:56:12;97484;;;0.0;79.3
77469;BME280;66567;50.272;12.818;2023-02-11T09:58:11;97485;;;0.1;79.5
77469;BME280;66567;50.272;12.818;2023-02-11T10:00:17;97487;;;0.1;79.5
77469;BME280;66567;50.272;12.818;2023-02-11T10:02:19;97494;;;0.1;79.5
77469;BME280;66567;50.272;12.818;2023-02-11T10:08:18;97505;;;0.1;79.7
77469;BME280;66567;50.272;12.818;2023-02-11T10:10:21;97494;;;0.1;79.9
77469;BME280;66567;50.272;12.818;2023-02-11T10:14:24;97496;;;0.1;79.9
77469;BME280;66567;50.272;12.818;2023-02-11T10:16:22;97500;;;0.1;80.0
77469;BME280;66567;50.272;12.818;2023-02-11T10:20:32;97504;;;0.1;80.2
77469;BME280;66567;50.272;12.818;2023-02-11T10:22:07;97509;;;0.1;80.2
77469;BME280;66567;50.272;12.818;2023-02-11T10:24:09;97507;;;0.1;80.2
77469;BME280;66567;50.272;12.818;2023-02-11T10:26:12;97509;;;0.1;80.2
77469;BME280;66567;50.272;12.818;2023-02-11T10:28:13;97515;;;0.1;80.5
77469;BME280;66567;50.272;12.818;2023-02-11T10:30:10;97519;;;0.1;80.5
77469;BME280;66567;50.272;12.818;2023-02-11T10:32:14;97518;;;0.1;80.5
77469;BME280;66567;50.272;12.818;2023-02-11T10:34:10;97509;;;0.1;80.6
77469;BME280;66567;50.272;12.818;2023-02-11T10:36:05;97506;;;0.2;80.4
77469;BME280;66567;50.272;12.818;2023-02-11T10:38:05;97503;;;0.2;80.5
77469;BME280;66567;50.272;12.818;2023-02-11T10:40:11;97497;;;0.2;80.6
77469;BME280;66567;50.272;12.818;2023-02-11T10:42:08;97489;;;0.2;80.7
77469;BME280;66567;50.272;12.818;2023-02-11T10:44:05;97481;;;0.2;80.9
77469;BME280;66567;50.272;12.818;2023-02-11T10:46:05;97480;;;0.2;81.1
77469;BME280;66567;50.272;12.818;2023-02-11T10:48:34;97484;;;0.2;81.1
77469;BME280;66567;50.272;12.818;2023-02-11T10:50:17;97484;;;0.3;81.1
77469;BME280;66567;50.272;12.818;2023-02-11T10:54:17;97481;;;0.3;81.0
77469;BME280;66567;50.272;12.818;2023-02-11T10:56:06;97486;;;0.3;81.0
77469;BME280;66567;50.272;12.818;2023-02-11T10:58:05;97486;;;0.3;81.0
77469;BME280;66567;50.272;12.818;2023-02-11T11:00:18;97490;;;0.3;81.1
77469;BME280;66567;50.272;12.818;2023-02-11T11:02:23;97489;;;0.3;81.2
77469;BME280;66567;50.272;12.818;2023-02-11T11:04:05;97489;;;0.4;81.2
77469;BME280;66567;50.272;12.818;2023-02-11T11:06:07;97490;;;0.4;81.2
77469;BME280;66567;50.272;12.818;2023-02-11T11:08:06;97491;;;0.4;81.2
77469;BME280;66567;50.272;12.818;2023-02-11T11:10:10;97490;;;0.4;81.3
77469;BME280;66567;50.272;12.818;2023-02-11T11:12:05;97489;;;0.4;81.2
77469;BME280;66567;50.272;12.818;2023-02-11T11:14:12;97483;;;0.5;81.3
77469;BME280;66567;50.272;12.818;2023-02-11T11:18:17;97481;;;0.5;81.4
77469;BME280;66567;50.272;12.818;2023-02-11T11:22:05;97477;;;0.5;81.4
77469;BME280;66567;50.272;12.818;2023-02-11T11:24:05;97476;;;0.5;81.2
77469;BME280;66567;50.272;12.818;2023-02-11T11:26:11;97472;;;0.6;81.1
77469;BME280;66567;50.272;12.818;2023-02-11T11:28:05;97466;;;0.6;81.2
77469;BME280;66567;50.272;12.818;2023-02-11T11:30:05;97467;;;0.6;80.9
77469;BME280;66567;50.272;12.818;2023-02-11T11:32:10;97470;;;0.6;81.2
77469;BME280;66567;50.272;12.818;2023-02-11T11:34:26;97464;;;0.7;81.0
77469;BME280;66567;50.272;12.818;2023-02-11T11:36:07;97459;;;0.7;80.9
77469;BME280;66567;50.272;12.818;2023-02-11T11:38:05;97460;;;0.7;80.9
77469;BME280;66567;50.272;12.818;2023-02-11T11:42:31;97457;;;0.8;80.8
77469;BME280;66567;50.272;12.818;2023-02-11T11:46:06;97459;;;0.8;80.5
77469;BME280;66567;50.272;12.818;2023-02-11T11:48:21;97461;;;0.8;80.7
77469;BME280;66567;50.272;12.818;2023-02-11T11:54:07;97460;;;0.9;80.5
77469;BME280;66567;50.272;12.818;2023-02-11T11:56:31;97456;;;1.0;80.3
77469;BME280;66567;50.272;12.818;2023-02-11T11:58:19;97457;;;1.0;80.3
77469;BME280;66567;50.272;12.818;2023-02-11T12:00:13;97458;;;1.0;80.1
77469;BME280;66567;50.272;12.818;2023-02-11T12:06:09;97449;;;1.1;79.9
77469;BME280;66567;50.272;12.818;2023-02-11T12:10:22;97445;;;1.1;80.0
77469;BME280;66567;50.272;12.818;2023-02-11T12:30:13;97432;;;1.3;79.3
77469;BME280;66567;50.272;12.818;2023-02-11T12:36:15;97428;;;1.4;79.4
77469;BME280;66567;50.272;12.818;2023-02-11T12:38:20;97429;;;1.4;79.8
77469;BME280;66567;50.272;12.818;2023-02-11T12:44:07;97417;;;1.5;79.2
77469;BME280;66567;50.272;12.818;2023-02-11T12:56:11;97428;;;1.5;79.0
77469;BME280;66567;50.272;12.818;2023-02-11T12:58:09;97427;;;1.5;79.0
77469;BME280;66567;50.272;12.818;2023-02-11T13:02:17;97421;;;1.5;78.9